Time;durP1;ratioP1;P1;durP2;ratioP2;P2;SDS_P1;SDS_P2;PMS_P1;PMS_P2;Temp;Humidity;BMP_temperature;BMP_pressure;BME280_temperature;BME280_humidity;BME280_pressure;Samples;Min_cycle;Max_cycle;Signal;HPM_P1;HPM_P2
2022/05/08 00:01:05;;;;;;;10.48;8.13;;;13.40;99.90;;;;;;4275732;28;10000763;-73
2022/05/08 00:03:30;;;;;;;13.48;8.38;;;13.40;99.90;;;;;;4978745;28;20168;-72
2022/05/08 00:05:56;;;;;;;10.80;8.75;;;13.40;99.90;;;;;;4977710;28;20498;-72
2022/05/08 00:08:22;;;;;;;10.77;8.52;;;13.40;99.90;;;;;;4986672;28;20180;-72
2022/05/08 00:10:47;;;;;;;12.05;9.02;;;13.40;99.90;;;;;;4975062;28;20037;-72
2022/05/08 00:13:14;;;;;;;14.55;9.45;;;13.40;99.90;;;;;;4979470;28;20109;-72
2022/05/08 00:15:40;;;;;;;13.65;9.77;;;13.30;99.90;;;;;;4983786;28;20034;-72
2022/05/08 00:18:07;;;;;;;12.60;9.05;;;13.30;99.90;;;;;;4972138;28;20085;-73
2022/05/08 00:20:33;;;;;;;14.18;9.18;;;13.30;99.90;;;;;;4975422;28;20024;-72
2022/05/08 00:22:58;;;;;;;14.65;10.32;;;13.30;99.90;;;;;;4981628;28;20466;-72
2022/05/08 00:25:26;;;;;;;14.55;9.90;;;13.30;99.90;;;;;;4983221;28;20114;-73
2022/05/08 00:27:51;;;;;;;12.65;9.95;;;13.30;99.90;;;;;;4976278;28;21177;-72
2022/05/08 00:30:17;;;;;;;13.38;9.88;;;13.30;99.90;;;;;;4980005;28;20054;-73
2022/05/08 00:32:43;;;;;;;13.93;9.98;;;13.20;99.90;;;;;;4978224;28;20042;-72
2022/05/08 00:35:11;;;;;;;15.15;10.23;;;13.20;99.90;;;;;;4962931;28;20054;-72
2022/05/08 00:37:38;;;;;;;13.93;10.43;;;13.20;99.90;;;;;;4961692;28;20027;-72
2022/05/08 00:40:05;;;;;;;15.07;10.35;;;13.30;99.90;;;;;;4957523;28;20034;-72
2022/05/08 00:42:30;;;;;;;13.00;10.10;;;13.20;99.90;;;;;;4962629;28;20035;-72
2022/05/08 00:44:56;;;;;;;14.55;10.68;;;13.20;99.90;;;;;;4969635;28;20027;-72
2022/05/08 00:47:21;;;;;;;18.17;10.55;;;13.20;99.90;;;;;;4964071;28;20034;-72
2022/05/08 00:49:48;;;;;;;15.10;11.05;;;13.10;99.90;;;;;;4959965;28;20051;-72
2022/05/08 00:52:15;;;;;;;15.77;11.73;;;13.10;99.90;;;;;;4968846;28;20130;-72
2022/05/08 00:54:42;;;;;;;15.80;10.90;;;13.10;99.90;;;;;;4967370;28;20035;-72
2022/05/08 00:57:09;;;;;;;14.70;11.68;;;13.10;99.90;;;;;;4967923;28;20045;-72
2022/05/08 00:59:35;;;;;;;20.38;12.35;;;13.10;99.90;;;;;;4964316;28;20915;-72
2022/05/08 01:02:01;;;;;;;17.02;11.77;;;13.10;99.90;;;;;;4957905;28;20038;-72
2022/05/08 01:04:26;;;;;;;24.10;12.77;;;13.10;99.90;;;;;;4957022;28;20025;-72
2022/05/08 01:06:52;;;;;;;21.48;12.73;;;13.10;99.90;;;;;;4964247;28;20043;-72
2022/05/08 01:09:18;;;;;;;19.60;13.57;;;13.10;99.90;;;;;;4961993;28;20058;-72
2022/05/08 01:11:44;;;;;;;18.55;13.23;;;13.00;99.90;;;;;;4963864;28;20035;-72
2022/05/08 01:14:10;;;;;;;20.23;13.85;;;13.10;99.90;;;;;;4965856;28;20031;-72
2022/05/08 01:16:36;;;;;;;17.38;13.30;;;13.10;99.90;;;;;;4967203;28;20034;-72
2022/05/08 01:19:02;;;;;;;22.23;13.15;;;13.10;99.90;;;;;;4963965;28;20041;-72
2022/05/08 01:21:41;;;;;;;17.60;13.40;;;13.00;99.90;;;;;;4964540;28;20038;-72
2022/05/08 01:24:08;;;;;;;22.45;14.27;;;13.00;99.90;;;;;;4960966;28;20019;-72
2022/05/08 01:26:34;;;;;;;18.60;14.35;;;13.00;99.90;;;;;;4966056;28;20058;-72
2022/05/08 01:29:00;;;;;;;20.08;14.00;;;13.00;99.90;;;;;;4968065;28;20497;-72
2022/05/08 01:31:26;;;;;;;23.58;15.57;;;13.00;99.90;;;;;;4967051;28;20054;-72
2022/05/08 01:33:52;;;;;;;20.20;14.80;;;13.00;99.90;;;;;;4963504;28;20031;-72
2022/05/08 01:36:17;;;;;;;20.73;15.38;;;13.00;99.90;;;;;;4961278;28;20038;-73
2022/05/08 01:38:43;;;;;;;21.35;15.00;;;13.00;99.90;;;;;;4961901;28;20035;-72
2022/05/08 01:41:09;;;;;;;20.05;15.25;;;13.00;99.90;;;;;;4962322;28;20031;-72
2022/05/08 01:43:36;;;;;;;23.83;15.88;;;13.00;99.90;;;;;;4964649;28;20475;-72
2022/05/08 01:46:03;;;;;;;25.48;16.60;;;12.90;99.90;;;;;;4966909;28;20127;-72
2022/05/08 01:48:30;;;;;;;25.90;15.98;;;12.90;99.90;;;;;;4963295;28;20105;-72
2022/05/08 01:50:57;;;;;;;24.08;16.65;;;12.90;99.90;;;;;;4956370;28;20043;-72
2022/05/08 01:53:34;;;;;;;24.92;17.27;;;12.90;99.90;;;;;;4959861;28;20035;-72
2022/05/08 01:56:02;;;;;;;23.83;18.00;;;12.90;99.90;;;;;;4968028;28;20045;-72
2022/05/08 01:58:29;;;;;;;23.50;18.02;;;12.90;99.90;;;;;;4962385;28;20034;-71
2022/05/08 02:00:56;;;;;;;26.30;17.73;;;12.90;99.90;;;;;;4961716;28;20027;-72
2022/05/08 02:03:23;;;;;;;24.13;17.75;;;12.90;99.90;;;;;;4968438;28;20033;-72
2022/05/08 02:05:49;;;;;;;24.20;17.98;;;12.90;99.90;;;;;;4961543;28;20031;-72
2022/05/08 02:08:15;;;;;;;25.25;17.25;;;12.90;99.90;;;;;;4964353;28;20680;-72
2022/05/08 02:10:42;;;;;;;25.17;17.30;;;12.90;99.90;;;;;;4955742;28;20394;-72
2022/05/08 02:13:08;;;;;;;26.70;17.77;;;12.90;99.90;;;;;;4961642;28;20033;-72
2022/05/08 02:15:34;;;;;;;26.38;17.90;;;12.90;99.90;;;;;;4976969;28;20101;-72
2022/05/08 02:18:06;;;;;;;27.60;17.65;;;12.90;99.90;;;;;;4974767;28;20041;-72
2022/05/08 02:20:32;;;;;;;23.48;18.02;;;12.90;99.90;;;;;;4964821;28;20122;-72
2022/05/08 02:22:58;;;;;;;26.50;17.80;;;12.80;99.90;;;;;;4963963;28;20497;-73
2022/05/08 02:25:24;;;;;;;21.40;16.98;;;12.80;99.90;;;;;;4962622;28;20487;-72
2022/05/08 02:27:51;;;;;;;25.33;17.63;;;12.90;99.90;;;;;;4962640;28;20054;-72
2022/05/08 02:30:18;;;;;;;24.08;16.73;;;12.80;99.90;;;;;;4956767;28;20039;-71
2022/05/08 02:32:44;;;;;;;24.25;16.98;;;12.80;99.90;;;;;;4967777;28;20026;-72
2022/05/08 02:35:10;;;;;;;22.88;16.55;;;12.80;99.90;;;;;;4961222;28;20424;-72
2022/05/08 02:37:38;;;;;;;22.60;16.52;;;12.80;99.90;;;;;;4964952;28;20111;-71
2022/05/08 02:40:06;;;;;;;24.70;17.02;;;12.70;99.90;;;;;;4959373;28;20027;-72
2022/05/08 02:42:32;;;;;;;24.45;17.08;;;12.70;99.90;;;;;;4962995;28;20023;-72
2022/05/08 02:44:57;;;;;;;22.38;16.10;;;12.70;99.90;;;;;;4968366;28;20041;-71
2022/05/08 02:47:23;;;;;;;22.55;16.77;;;12.60;99.90;;;;;;4962138;28;20026;-72
2022/05/08 02:49:48;;;;;;;23.02;16.83;;;12.60;99.90;;;;;;4955604;28;20058;-72
2022/05/08 02:52:14;;;;;;;23.52;16.48;;;12.60;99.90;;;;;;4964467;28;20030;-72
2022/05/08 02:54:39;;;;;;;23.85;17.15;;;12.60;99.90;;;;;;4966230;28;20085;-73
2022/05/08 02:59:50;;;;;;;25.33;17.05;;;12.50;99.90;;;;;;4952771;28;20560;-72
2022/05/08 03:02:16;;;;;;;23.27;16.52;;;12.50;99.90;;;;;;4961240;28;20049;-71
2022/05/08 03:04:42;;;;;;;23.77;16.77;;;12.40;99.90;;;;;;4953317;28;20081;-72
2022/05/08 03:07:07;;;;;;;28.63;16.52;;;12.40;99.90;;;;;;4961671;28;20465;-72
2022/05/08 03:09:33;;;;;;;22.33;16.80;;;12.40;99.90;;;;;;4963982;28;20042;-72
2022/05/08 03:11:58;;;;;;;27.30;17.42;;;12.40;99.90;;;;;;4960883;28;20026;-72
2022/05/08 03:14:24;;;;;;;23.60;15.80;;;12.40;99.90;;;;;;4962120;28;20038;-71
2022/05/08 03:16:50;;;;;;;20.85;16.45;;;12.40;99.90;;;;;;4965599;28;20106;-72
2022/05/08 03:19:18;;;;;;;23.48;16.52;;;12.30;99.90;;;;;;4959241;28;20037;-72
2022/05/08 03:21:48;;;;;;;23.00;17.08;;;12.30;99.90;;;;;;4960756;28;20031;-72
2022/05/08 03:24:14;;;;;;;23.45;15.75;;;12.30;99.90;;;;;;4966379;28;20689;-72
2022/05/08 03:26:40;;;;;;;25.67;16.38;;;12.30;99.90;;;;;;4959760;28;20034;-72
2022/05/08 03:29:07;;;;;;;23.08;15.90;;;12.20;99.90;;;;;;4965919;28;20514;-71
2022/05/08 03:31:33;;;;;;;23.73;16.40;;;12.20;99.90;;;;;;4959078;28;20041;-72
2022/05/08 03:33:59;;;;;;;22.23;16.35;;;12.20;99.90;;;;;;4958456;28;20035;-72
2022/05/08 03:36:24;;;;;;;22.48;15.73;;;12.20;99.90;;;;;;4960760;28;20042;-72
2022/05/08 03:38:50;;;;;;;21.83;15.68;;;12.20;99.90;;;;;;4965905;28;20018;-72
2022/05/08 03:41:16;;;;;;;22.23;15.90;;;12.20;99.90;;;;;;4956710;28;20182;-72
2022/05/08 03:43:44;;;;;;;23.90;16.13;;;12.10;99.90;;;;;;4963168;28;20117;-72
2022/05/08 03:46:10;;;;;;;20.33;15.23;;;12.10;99.90;;;;;;4962381;28;20513;-72
2022/05/08 03:48:36;;;;;;;20.65;15.85;;;12.10;99.90;;;;;;4960888;28;20039;-72
2022/05/08 03:51:03;;;;;;;23.27;16.10;;;12.10;99.90;;;;;;4966619;28;20054;-72
2022/05/08 03:53:28;;;;;;;25.65;15.75;;;12.10;99.90;;;;;;4957921;28;20054;-72
2022/05/08 03:55:54;;;;;;;21.17;15.00;;;12.10;99.90;;;;;;4962137;28;20643;-71
2022/05/08 03:58:19;;;;;;;21.20;14.80;;;12.10;99.90;;;;;;4963106;28;20169;-73
2022/05/08 04:00:45;;;;;;;22.67;15.43;;;12.00;99.90;;;;;;4961863;28;20030;-72
2022/05/08 04:03:11;;;;;;;20.98;14.38;;;12.00;99.90;;;;;;4960144;28;20042;-72
2022/05/08 04:05:36;;;;;;;22.73;14.35;;;12.00;99.90;;;;;;4952435;28;20495;-73
2022/05/08 04:08:02;;;;;;;19.63;14.07;;;12.00;99.90;;;;;;4962256;28;20057;-72
2022/05/08 04:10:28;;;;;;;18.67;13.30;;;12.00;99.90;;;;;;4948347;28;20090;-72
2022/05/08 04:12:54;;;;;;;20.25;13.00;;;12.00;99.90;;;;;;4958658;28;20031;-73
2022/05/08 04:18:03;;;;;;;19.60;12.85;;;12.00;99.90;;;;;;4960886;28;20034;-72
2022/05/08 04:20:29;;;;;;;22.33;13.60;;;11.90;99.90;;;;;;4964512;28;20031;-72
2022/05/08 04:25:39;;;;;;;20.55;13.15;;;11.90;99.90;;;;;;4964624;28;20035;-72
2022/05/08 04:28:04;;;;;;;20.88;13.02;;;12.00;99.90;;;;;;4960619;28;20022;-72
2022/05/08 04:30:30;;;;;;;22.20;13.25;;;12.00;99.90;;;;;;4951938;28;20093;-72
2022/05/08 04:32:56;;;;;;;21.35;12.65;;;12.00;99.90;;;;;;4962248;28;20026;-72
2022/05/08 04:35:21;;;;;;;17.20;13.35;;;12.00;99.90;;;;;;4963968;28;20027;-72
2022/05/08 04:37:47;;;;;;;21.98;13.05;;;12.00;99.90;;;;;;4963348;28;20111;-72
2022/05/08 04:40:13;;;;;;;19.80;12.15;;;12.00;99.90;;;;;;4958465;28;20102;-72
2022/05/08 04:42:39;;;;;;;20.67;12.52;;;12.00;99.90;;;;;;4955043;28;20031;-72
2022/05/08 04:45:05;;;;;;;18.95;12.45;;;12.00;99.90;;;;;;4963237;28;20023;-72
2022/05/08 04:47:31;;;;;;;18.17;11.80;;;12.00;99.90;;;;;;4960834;28;20023;-72
2022/05/08 04:49:56;;;;;;;17.08;11.43;;;12.00;99.90;;;;;;4964395;28;20051;-72
2022/05/08 04:52:22;;;;;;;19.75;11.73;;;12.00;99.90;;;;;;4964929;28;20096;-72
2022/05/08 04:54:48;;;;;;;19.15;11.95;;;12.00;99.90;;;;;;4955202;28;20035;-72
2022/05/08 04:57:13;;;;;;;18.98;12.15;;;12.00;99.90;;;;;;4956720;28;20041;-72
2022/05/08 04:59:39;;;;;;;18.35;10.95;;;12.00;99.90;;;;;;4962162;28;20007;-72
2022/05/08 05:02:08;;;;;;;20.30;10.93;;;12.00;99.90;;;;;;4954337;28;20730;-72
2022/05/08 05:04:36;;;;;;;15.82;10.60;;;12.00;99.90;;;;;;4961705;28;20027;-72
2022/05/08 05:07:02;;;;;;;15.88;10.20;;;12.00;99.90;;;;;;4961783;28;20035;-72
2022/05/08 05:09:28;;;;;;;16.35;9.93;;;11.90;99.90;;;;;;4961324;28;20035;-72
2022/05/08 05:11:54;;;;;;;18.45;11.02;;;12.00;99.90;;;;;;4960664;28;20586;-72
2022/05/08 05:14:19;;;;;;;16.15;9.95;;;11.90;99.90;;;;;;4959256;28;20674;-73
2022/05/08 05:16:46;;;;;;;15.73;9.77;;;11.90;99.90;;;;;;4961640;28;20622;-73
2022/05/08 05:19:12;;;;;;;16.23;10.30;;;11.90;99.90;;;;;;4962274;28;20035;-73
2022/05/08 05:21:37;;;;;;;18.05;11.40;;;11.90;99.90;;;;;;4960568;28;20469;-72
2022/05/08 05:24:03;;;;;;;17.33;11.93;;;11.90;99.90;;;;;;4961378;28;20094;-72
2022/05/08 05:26:29;;;;;;;17.13;12.27;;;11.90;99.90;;;;;;4961397;28;20027;-72
2022/05/08 05:28:55;;;;;;;18.02;11.85;;;11.90;99.90;;;;;;4960661;28;20035;-71
2022/05/08 05:31:20;;;;;;;19.70;12.88;;;11.90;99.90;;;;;;4958915;28;20378;-72
2022/05/08 05:33:48;;;;;;;19.75;13.15;;;11.90;99.90;;;;;;4955676;28;20153;-72
2022/05/08 05:36:14;;;;;;;23.45;14.35;;;11.90;99.90;;;;;;4966269;28;20483;-72
2022/05/08 05:38:40;;;;;;;24.17;14.80;;;11.90;99.90;;;;;;4967266;28;20034;-71
2022/05/08 05:41:06;;;;;;;19.67;13.88;;;11.90;99.90;;;;;;4961316;28;20850;-71
2022/05/08 05:43:33;;;;;;;18.05;14.18;;;12.00;99.90;;;;;;4965602;28;20157;-71
2022/05/08 05:48:43;;;;;;;20.05;13.10;;;12.00;99.90;;;;;;4964264;28;20435;-71
2022/05/08 05:51:09;;;;;;;19.13;12.88;;;12.00;99.90;;;;;;4961137;28;20046;-72
2022/05/08 05:53:35;;;;;;;20.05;13.10;;;12.00;99.90;;;;;;4967157;28;20081;-71
2022/05/08 05:56:01;;;;;;;20.50;12.77;;;12.00;99.90;;;;;;4958731;28;20423;-71
2022/05/08 05:58:27;;;;;;;20.38;13.77;;;11.90;99.90;;;;;;4963921;28;20060;-71
2022/05/08 06:00:53;;;;;;;19.65;12.88;;;11.90;99.90;;;;;;4956991;28;20050;-71
2022/05/08 06:03:19;;;;;;;20.10;13.15;;;11.90;99.90;;;;;;4960127;28;20027;-72
2022/05/08 06:05:46;;;;;;;21.25;12.02;;;11.90;99.90;;;;;;4610806;28;9999610;-71
2022/05/08 06:08:12;;;;;;;18.67;12.18;;;11.90;99.90;;;;;;4953413;28;20027;-72
2022/05/08 06:10:38;;;;;;;21.67;12.68;;;11.90;99.90;;;;;;4954013;28;20097;-71
2022/05/08 06:13:04;;;;;;;20.23;12.23;;;11.90;99.90;;;;;;4956212;28;20031;-71
2022/05/08 06:15:29;;;;;;;19.73;12.40;;;11.90;99.90;;;;;;4955658;28;20035;-72
2022/05/08 06:17:55;;;;;;;18.67;12.95;;;11.90;99.90;;;;;;4954384;28;20030;-72
2022/05/08 06:20:21;;;;;;;22.25;13.02;;;11.90;99.90;;;;;;4956718;28;20034;-71
2022/05/08 06:22:47;;;;;;;20.67;13.23;;;11.90;99.90;;;;;;4953510;28;20058;-71
2022/05/08 06:25:12;;;;;;;20.80;12.32;;;11.90;99.90;;;;;;4954403;28;20026;-72
2022/05/08 06:27:38;;;;;;;19.10;12.85;;;11.90;99.90;;;;;;4946252;28;20475;-72
2022/05/08 06:30:06;;;;;;;17.38;12.45;;;11.90;99.90;;;;;;4953967;28;20059;-72
2022/05/08 06:32:31;;;;;;;18.80;12.82;;;11.90;99.90;;;;;;4951038;28;20281;-72
2022/05/08 06:34:57;;;;;;;22.25;13.13;;;11.90;99.90;;;;;;4947920;28;20041;-72
2022/05/08 06:37:22;;;;;;;22.23;13.15;;;11.90;99.90;;;;;;4956993;28;20165;-72
2022/05/08 06:39:48;;;;;;;19.23;13.45;;;11.90;99.90;;;;;;4957193;28;20097;-71
2022/05/08 06:42:14;;;;;;;21.70;14.38;;;11.80;99.90;;;;;;4960031;28;20030;-71
2022/05/08 06:44:39;;;;;;;26.20;14.32;;;11.80;99.90;;;;;;4963331;28;20019;-72
2022/05/08 06:47:05;;;;;;;23.75;14.20;;;11.90;99.90;;;;;;4960621;28;20023;-72
2022/05/08 06:49:31;;;;;;;25.73;14.98;;;11.90;99.90;;;;;;4956514;28;20475;-72
2022/05/08 06:51:56;;;;;;;22.95;15.35;;;12.00;99.90;;;;;;4960270;28;20545;-72
2022/05/08 06:54:23;;;;;;;24.00;16.77;;;12.10;99.90;;;;;;4962365;28;20026;-72
2022/05/08 06:56:49;;;;;;;23.42;16.38;;;12.20;99.90;;;;;;4960626;28;20027;-72
2022/05/08 07:01:58;;;;;;;26.35;19.00;;;12.30;99.90;;;;;;4952901;28;20069;-71
2022/05/08 07:04:24;;;;;;;30.13;18.75;;;12.40;99.90;;;;;;4952114;28;20569;-72
2022/05/08 07:06:51;;;;;;;25.50;19.17;;;12.40;99.90;;;;;;4951772;28;20035;-72
2022/05/08 07:09:16;;;;;;;27.70;18.35;;;12.50;99.90;;;;;;4955900;28;20073;-71
2022/05/08 07:11:47;;;;;;;25.10;17.52;;;12.50;99.90;;;;;;4962162;28;20058;-71
2022/05/08 07:14:13;;;;;;;27.60;18.50;;;12.50;99.90;;;;;;4962445;28;20147;-71
2022/05/08 07:16:39;;;;;;;26.48;16.95;;;12.50;99.90;;;;;;4961430;28;20118;-71
2022/05/08 07:19:04;;;;;;;24.92;17.00;;;12.50;99.90;;;;;;4964370;28;20487;-71
2022/05/08 07:21:30;;;;;;;27.17;17.70;;;12.60;99.90;;;;;;4956145;28;20026;-71
2022/05/08 07:23:56;;;;;;;26.08;17.98;;;12.60;99.90;;;;;;4961321;28;20135;-71
2022/05/08 07:26:22;;;;;;;27.05;17.27;;;12.60;99.90;;;;;;4961241;28;20022;-71
2022/05/08 07:28:47;;;;;;;26.42;16.65;;;12.70;99.90;;;;;;4960761;28;20410;-71
2022/05/08 07:31:13;;;;;;;23.00;15.20;;;12.70;99.90;;;;;;4957304;28;20030;-71
2022/05/08 07:33:39;;;;;;;23.83;15.23;;;12.80;99.90;;;;;;4956783;28;20030;-72
2022/05/08 07:36:15;;;;;;;23.63;15.18;;;12.90;99.90;;;;;;4963164;28;20046;-72
2022/05/08 07:38:45;;;;;;;23.20;15.00;;;13.00;99.90;;;;;;4956288;28;20019;-71
2022/05/08 07:41:15;;;;;;;23.52;15.63;;;13.20;99.90;;;;;;4959716;28;20589;-71
2022/05/08 07:43:44;;;;;;;22.45;15.93;;;13.30;99.90;;;;;;4958524;28;20026;-71
2022/05/08 07:46:10;;;;;;;22.13;15.20;;;13.50;99.90;;;;;;4965723;28;20503;-72
2022/05/08 07:48:35;;;;;;;22.70;15.27;;;13.70;99.90;;;;;;4962823;28;20030;-71
2022/05/08 07:51:02;;;;;;;21.00;14.77;;;13.90;99.90;;;;;;4955478;28;20081;-71
2022/05/08 07:53:28;;;;;;;19.60;13.73;;;14.20;99.90;;;;;;4960856;28;20034;-71
2022/05/08 07:55:54;;;;;;;25.10;15.48;;;14.40;99.90;;;;;;4959462;28;20089;-71
2022/05/08 07:58:22;;;;;;;21.65;13.80;;;14.50;99.90;;;;;;4959828;28;20440;-71
2022/05/08 08:00:49;;;;;;;23.63;14.50;;;14.70;99.90;;;;;;4954267;28;20082;-71
2022/05/08 08:03:16;;;;;;;23.55;13.70;;;14.70;99.90;;;;;;4959089;28;21042;-71
2022/05/08 08:05:43;;;;;;;22.27;13.82;;;14.80;99.90;;;;;;4954089;28;20068;-71
2022/05/08 08:08:09;;;;;;;22.13;14.38;;;14.90;99.90;;;;;;4957446;28;20082;-71
2022/05/08 08:10:35;;;;;;;21.83;14.18;;;15.00;99.90;;;;;;4964237;28;20089;-71
2022/05/08 08:13:00;;;;;;;21.45;14.02;;;15.00;99.90;;;;;;4961937;28;20022;-72
2022/05/08 08:15:26;;;;;;;20.15;13.93;;;15.00;99.90;;;;;;4971391;28;20034;-72
2022/05/08 08:17:52;;;;;;;19.25;12.93;;;15.10;99.90;;;;;;4977733;28;20161;-72
2022/05/08 08:20:17;;;;;;;19.58;12.77;;;15.20;99.90;;;;;;4959863;28;20134;-71
2022/05/08 08:22:43;;;;;;;20.10;13.00;;;15.30;99.90;;;;;;4962735;28;20162;-71
2022/05/08 08:25:09;;;;;;;19.33;12.70;;;15.30;99.90;;;;;;4962091;28;20038;-71
2022/05/08 08:27:35;;;;;;;18.45;12.35;;;15.20;99.90;;;;;;4958991;28;20023;-71
2022/05/08 08:30:03;;;;;;;20.95;12.73;;;15.10;99.90;;;;;;4955151;28;20039;-71
2022/05/08 08:32:44;;;;;;;22.44;13.04;;;15.20;99.90;;;;;;4803001;28;10001393;-72
2022/05/08 08:35:10;;;;;;;20.55;13.00;;;15.30;99.90;;;;;;4940268;28;21082;-71
2022/05/08 08:37:35;;;;;;;20.92;11.98;;;15.20;99.90;;;;;;4946527;28;20039;-72
2022/05/08 08:40:01;;;;;;;22.95;12.35;;;15.30;99.90;;;;;;4944372;28;20039;-72
2022/05/08 08:42:31;;;;;;;20.38;13.00;;;15.20;99.90;;;;;;4943873;28;20724;-71
2022/05/08 08:47:56;;;;;;;19.90;12.30;;;15.10;99.90;;;;;;4949274;28;20701;-71
2022/05/08 08:50:27;;;;;;;17.60;11.50;;;15.10;99.90;;;;;;4951889;28;20266;-72
2022/05/08 08:52:57;;;;;;;22.00;11.63;;;15.20;99.90;;;;;;4944397;28;20028;-72
2022/05/08 08:55:24;;;;;;;18.00;11.55;;;15.30;99.90;;;;;;4949991;28;20566;-71
2022/05/08 08:57:50;;;;;;;20.23;11.68;;;15.50;99.90;;;;;;4942432;28;20039;-70
2022/05/08 09:00:18;;;;;;;20.45;11.25;;;15.70;99.90;;;;;;4939887;28;20069;-70
2022/05/08 09:02:44;;;;;;;16.92;10.52;;;15.80;99.90;;;;;;4946656;28;20090;-71
2022/05/08 09:05:11;;;;;;;18.50;10.45;;;15.90;99.90;;;;;;4941264;28;20141;-70
2022/05/08 09:07:48;;;;;;;19.17;10.70;;;15.90;99.90;;;;;;4944556;28;20050;-70
2022/05/08 09:10:22;;;;;;;20.38;10.35;;;16.00;99.90;;;;;;4940889;29;20129;-70
2022/05/08 09:12:53;;;;;;;;;;;16.10;99.90;;;;;;4943502;29;20456;-70
2022/05/08 09:15:23;;;;;;;16.17;9.80;;;16.20;99.90;;;;;;4944015;28;19929;-69
2022/05/08 09:17:54;;;;;;;18.67;10.13;;;16.20;99.90;;;;;;4942438;28;20399;-70
2022/05/08 09:20:23;;;;;;;16.80;10.05;;;16.20;99.90;;;;;;4939960;29;20629;-70
2022/05/08 09:23:14;;;;;;;18.05;10.57;;;16.20;99.90;;;;;;4932707;29;20031;-70
2022/05/08 09:25:59;;;;;;;21.15;10.27;;;16.20;99.90;;;;;;4939247;29;20457;-69
2022/05/08 09:28:32;;;;;;;18.13;10.10;;;16.10;99.90;;;;;;4936585;28;20799;-69
2022/05/08 09:31:15;;;;;;;19.90;10.18;;;16.20;99.90;;;;;;4942821;28;20126;-69
2022/05/08 09:33:41;;;;;;;16.00;9.15;;;16.30;99.90;;;;;;4937391;28;20036;-70
2022/05/08 09:36:09;;;;;;;20.08;9.00;;;16.40;99.90;;;;;;4940224;29;20086;-70
2022/05/08 09:38:45;;;;;;;15.55;8.48;;;16.60;99.90;;;;;;4937204;28;20047;-70
2022/05/08 09:41:11;;;;;;;16.83;7.95;;;16.80;99.90;;;;;;4942116;29;20134;-70
2022/05/08 09:43:40;;;;;;;14.98;7.57;;;16.70;99.90;;;;;;4945988;28;20633;-69
2022/05/08 09:46:06;;;;;;;16.05;7.50;;;16.80;99.90;;;;;;4938954;28;20047;-70
2022/05/08 09:48:33;;;;;;;12.70;6.70;;;16.90;99.90;;;;;;4935519;28;20031;-70
2022/05/08 09:51:07;;;;;;;14.38;7.07;;;17.00;99.90;;;;;;4957666;28;20053;-70
2022/05/08 09:53:35;;;;;;;12.98;6.38;;;17.10;99.90;;;;;;4958912;28;20035;-71
2022/05/08 09:56:04;;;;;;;13.13;6.90;;;17.20;99.90;;;;;;4963834;28;20034;-71
2022/05/08 09:58:30;;;;;;;13.60;6.82;;;17.20;99.90;;;;;;4959674;28;20493;-71
2022/05/08 10:00:56;;;;;;;10.93;6.45;;;17.10;99.90;;;;;;4963633;28;20725;-69
2022/05/08 10:03:22;;;;;;;13.27;6.53;;;17.10;99.90;;;;;;4962414;28;20073;-72
2022/05/08 10:05:49;;;;;;;12.13;6.03;;;17.10;99.90;;;;;;4957646;28;20134;-70
2022/05/08 10:08:18;;;;;;;13.82;5.85;;;17.10;99.90;;;;;;4961144;28;20077;-71
2022/05/08 10:13:56;;;;;;;10.38;5.03;;;17.40;99.90;;;;;;4961773;28;20045;-71
2022/05/08 10:16:47;;;;;;;11.13;5.38;;;17.60;99.90;;;;;;4958646;28;20045;-71
2022/05/08 10:19:24;;;;;;;13.48;5.38;;;17.70;99.90;;;;;;4961899;28;20031;-70
2022/05/08 10:22:13;;;;;;;11.32;4.90;;;17.90;99.90;;;;;;4964663;28;20031;-69
2022/05/08 10:24:38;;;;;;;10.57;4.63;;;17.90;99.90;;;;;;4963254;28;20487;-69
2022/05/08 10:27:14;;;;;;;11.20;4.82;;;17.90;99.90;;;;;;4961790;28;20058;-69
2022/05/08 10:29:41;;;;;;;12.85;4.60;;;18.00;99.90;;;;;;4950304;28;20027;-69
2022/05/08 10:32:09;;;;;;;8.30;4.50;;;18.10;99.90;;;;;;4963349;28;20080;-69
2022/05/08 10:34:37;;;;;;;11.93;4.25;;;18.10;99.90;;;;;;4961945;28;20765;-69
2022/05/08 10:37:11;;;;;;;8.43;4.03;;;17.70;99.90;;;;;;4963119;28;20130;-69
2022/05/08 10:39:43;;;;;;;9.45;4.68;;;17.50;99.90;;;;;;4956491;28;20023;-69
2022/05/08 10:42:44;;;;;;;11.05;4.15;;;17.40;99.90;;;;;;4961384;28;20404;-70
2022/05/08 10:45:32;;;;;;;8.63;4.22;;;17.30;99.90;;;;;;4942447;28;20046;-71
2022/05/08 10:48:07;;;;;;;11.60;4.38;;;17.30;99.90;;;;;;4961002;28;20478;-69
2022/05/08 10:50:37;;;;;;;10.75;4.10;;;17.50;99.90;;;;;;4954650;28;20765;-69
2022/05/08 10:53:02;;;;;;;13.35;4.22;;;17.60;99.90;;;;;;4959468;28;20784;-69
2022/05/08 10:55:29;;;;;;;10.23;4.60;;;17.60;99.90;;;;;;4956386;28;20471;-70
2022/05/08 10:57:55;;;;;;;12.05;3.92;;;17.60;99.90;;;;;;4958369;28;20027;-71
2022/05/08 11:00:26;;;;;;;12.90;4.80;;;17.70;99.90;;;;;;4954418;28;20039;-70
2022/05/08 11:02:54;;;;;;;11.20;4.72;;;17.80;99.90;;;;;;4956851;28;20027;-72
2022/05/08 11:05:22;;;;;;;13.60;4.55;;;17.90;99.90;;;;;;4963053;28;20037;-70
2022/05/08 11:07:54;;;;;;;8.63;4.43;;;17.80;99.90;;;;;;4961482;28;20038;-71
2022/05/08 11:10:28;;;;;;;11.53;4.70;;;17.80;99.90;;;;;;4953346;28;20031;-71
2022/05/08 11:12:59;;;;;;;11.82;4.60;;;17.80;99.90;;;;;;4960564;28;20672;-71
2022/05/08 11:15:26;;;;;;;8.63;4.00;;;17.80;99.90;;;;;;4962010;28;20419;-71
2022/05/08 11:18:07;;;;;;;11.40;3.88;;;17.90;99.90;;;;;;4956155;28;20047;-71
2022/05/08 11:20:36;;;;;;;8.63;3.72;;;18.10;99.90;;;;;;4952355;28;20034;-69
2022/05/08 11:23:02;;;;;;;9.48;3.35;;;18.20;99.90;;;;;;4961896;28;20085;-69
2022/05/08 11:25:28;;;;;;;8.02;3.30;;;18.10;99.90;;;;;;4958612;28;20028;-70
2022/05/08 11:27:55;;;;;;;9.95;3.75;;;18.20;99.90;;;;;;4955856;28;20555;-71
2022/05/08 11:30:27;;;;;;;12.82;3.80;;;18.40;99.90;;;;;;4958896;28;20394;-71
2022/05/08 11:38:22;;;;;;;9.93;3.90;;;18.60;99.90;;;;;;4957338;28;20051;-70
2022/05/08 11:40:50;;;;;;;9.25;3.42;;;18.60;99.90;;;;;;4956473;28;20035;-70
2022/05/08 11:43:42;;;;;;;11.80;3.50;;;18.60;99.90;;;;;;4957209;28;20041;-71
2022/05/08 11:46:08;;;;;;;12.10;3.70;;;18.80;99.90;;;;;;4954671;28;20521;-70
2022/05/08 11:48:37;;;;;;;8.77;3.25;;;19.00;99.90;;;;;;4951665;28;20391;-70
2022/05/08 11:51:04;;;;;;;9.52;3.72;;;19.30;99.90;;;;;;4958756;28;20059;-70
2022/05/08 11:53:43;;;;;;;8.18;3.67;;;19.40;99.90;;;;;;4958993;28;20054;-70
2022/05/08 11:56:21;;;;;;;6.85;2.97;;;19.10;99.90;;;;;;4959546;28;20027;-71
2022/05/08 11:58:49;;;;;;;8.35;3.50;;;19.10;99.90;;;;;;4963458;28;20019;-72
2022/05/08 12:01:31;;;;;;;7.45;3.42;;;19.20;99.90;;;;;;4964813;28;20115;-71
2022/05/08 12:04:22;;;;;;;8.30;3.25;;;19.20;99.90;;;;;;4967209;28;20452;-71
2022/05/08 12:06:59;;;;;;;8.80;3.03;;;19.10;99.90;;;;;;4967032;28;20026;-71
2022/05/08 12:09:30;;;;;;;8.25;3.17;;;19.10;99.90;;;;;;4965945;28;20039;-71
2022/05/08 12:11:56;;;;;;;6.78;2.85;;;19.30;99.90;;;;;;4963095;28;20038;-72
2022/05/08 12:14:31;;;;;;;7.53;3.00;;;19.30;99.90;;;;;;4947972;29;20035;-72
2022/05/08 12:17:02;;;;;;;8.02;2.67;;;19.50;98.50;;;;;;4968917;28;20588;-72
2022/05/08 12:19:28;;;;;;;9.77;2.63;;;19.70;98.20;;;;;;4966941;28;20033;-72
2022/05/08 12:21:57;;;;;;;9.95;2.80;;;20.00;97.00;;;;;;4959558;28;20034;-71
2022/05/08 12:24:22;;;;;;;5.82;2.40;;;20.20;98.00;;;;;;4957109;28;20050;-72
2022/05/08 12:26:49;;;;;;;6.53;2.08;;;20.30;97.20;;;;;;4952779;28;20035;-72
2022/05/08 12:29:23;;;;;;;5.82;2.45;;;20.40;94.80;;;;;;4966871;28;20079;-72
2022/05/08 12:31:50;;;;;;;6.53;2.78;;;20.50;95.20;;;;;;4965021;28;20023;-72
2022/05/08 12:34:18;;;;;;;8.48;3.03;;;20.50;94.60;;;;;;4959109;28;20110;-71
2022/05/08 12:36:44;;;;;;;5.65;2.30;;;20.40;93.80;;;;;;4955447;28;20129;-72
2022/05/08 12:39:10;;;;;;;6.05;2.40;;;20.30;95.30;;;;;;4958467;28;20583;-72
2022/05/08 12:41:37;;;;;;;7.40;2.15;;;20.30;95.00;;;;;;4966641;28;20058;-72
2022/05/08 12:44:04;;;;;;;6.85;2.33;;;20.20;97.40;;;;;;4973349;28;20018;-72
2022/05/08 12:46:30;;;;;;;7.20;2.22;;;20.30;97.70;;;;;;4987072;28;20276;-72
2022/05/08 12:49:02;;;;;;;7.13;2.83;;;20.20;95.60;;;;;;4973522;28;20031;-72
2022/05/08 12:51:35;;;;;;;7.82;2.33;;;20.10;94.90;;;;;;4952736;28;20031;-71
2022/05/08 12:54:02;;;;;;;5.88;1.98;;;20.10;94.40;;;;;;4968167;28;20033;-72
2022/05/08 12:56:32;;;;;;;6.05;2.25;;;20.20;93.40;;;;;;4972307;28;20070;-71
2022/05/08 13:01:45;;;;;;;7.22;2.30;;;20.20;94.90;;;;;;4971727;28;20076;-71